Time;durP1;ratioP1;P1;durP2;ratioP2;P2;SDS_P1;SDS_P2;PMS_P1;PMS_P2;Temp;Humidity;BMP_temperature;BMP_pressure;BME280_temperature;BME280_humidity;BME280_pressure;Samples;Min_cycle;Max_cycle;Signal;HPM_P1;HPM_P2
2022/07/10 00:02:04;;;;;;;1.30;1.00;;;20.00;99.90;;;;;;5020839;28;20227;-88
2022/07/10 00:04:31;;;;;;;2.28;0.90;;;20.00;99.90;;;;;;5017960;28;20714;-88
2022/07/10 00:06:58;;;;;;;1.30;0.80;;;19.90;99.90;;;;;;5026925;28;20229;-88
2022/07/10 00:09:27;;;;;;;1.20;1.10;;;19.90;99.90;;;;;;5020795;28;20195;-89
2022/07/10 00:11:54;;;;;;;2.58;1.55;;;19.90;99.90;;;;;;5027944;28;20657;-88
2022/07/10 00:14:21;;;;;;;1.77;1.20;;;19.90;99.90;;;;;;5023809;28;20203;-88
2022/07/10 00:16:48;;;;;;;1.85;0.90;;;19.90;99.90;;;;;;5020738;28;20199;-89
2022/07/10 00:19:15;;;;;;;1.30;1.00;;;19.90;99.90;;;;;;5023189;28;20691;-88
2022/07/10 00:21:41;;;;;;;1.48;0.98;;;19.90;99.90;;;;;;5018952;28;20575;-88
2022/07/10 00:24:10;;;;;;;1.58;0.90;;;19.90;99.90;;;;;;5022694;28;20218;-88
2022/07/10 00:26:38;;;;;;;1.58;0.90;;;19.90;99.90;;;;;;5015070;28;20199;-88
2022/07/10 00:29:04;;;;;;;1.73;0.95;;;19.80;99.90;;;;;;5025020;28;20211;-88
2022/07/10 00:31:31;;;;;;;1.90;0.90;;;19.80;99.90;;;;;;5022468;28;20210;-87
2022/07/10 00:33:58;;;;;;;1.20;0.82;;;19.80;99.90;;;;;;5022902;28;20210;-88
2022/07/10 00:36:25;;;;;;;1.30;0.80;;;19.80;99.90;;;;;;5027920;28;20218;-88
2022/07/10 00:38:51;;;;;;;2.85;1.10;;;19.80;99.90;;;;;;5016055;28;20201;-88
2022/07/10 00:41:18;;;;;;;1.60;0.90;;;19.80;99.90;;;;;;5015233;28;20676;-87
2022/07/10 00:43:57;;;;;;;1.45;0.80;;;19.80;99.90;;;;;;5020445;28;20693;-89
2022/07/10 00:46:24;;;;;;;1.80;0.80;;;19.80;99.90;;;;;;5023634;28;20268;-88
2022/07/10 00:48:51;;;;;;;1.35;0.75;;;19.70;99.90;;;;;;5023622;28;20200;-89
2022/07/10 00:51:21;;;;;;;1.20;1.00;;;19.70;99.90;;;;;;5026437;28;20212;-87
2022/07/10 00:53:49;;;;;;;1.50;0.80;;;19.70;99.90;;;;;;5021211;28;20201;-88
2022/07/10 00:56:17;;;;;;;2.35;1.05;;;19.70;99.90;;;;;;5018306;28;20249;-88
2022/07/10 00:58:46;;;;;;;1.23;0.80;;;19.70;99.90;;;;;;5023451;28;20670;-88
2022/07/10 01:01:15;;;;;;;3.22;1.05;;;19.70;99.90;;;;;;5017485;28;20681;-88
2022/07/10 01:03:42;;;;;;;1.27;0.95;;;19.70;99.90;;;;;;5025961;28;20229;-88
2022/07/10 01:06:09;;;;;;;2.65;1.00;;;19.70;99.90;;;;;;5018728;28;20200;-87
2022/07/10 01:08:36;;;;;;;2.17;0.95;;;19.70;99.90;;;;;;5014302;28;20212;-88
2022/07/10 01:11:03;;;;;;;3.78;1.10;;;19.60;99.90;;;;;;5020453;28;20217;-88
2022/07/10 01:13:31;;;;;;;1.52;0.85;;;19.60;99.90;;;;;;5027766;28;20204;-88
2022/07/10 01:15:58;;;;;;;2.75;0.80;;;19.60;99.90;;;;;;5022274;28;20307;-88
2022/07/10 01:18:27;;;;;;;2.63;1.15;;;19.60;99.90;;;;;;5027797;28;20207;-88
2022/07/10 01:20:56;;;;;;;1.40;1.23;;;19.60;99.90;;;;;;5020417;28;20225;-88
2022/07/10 01:23:24;;;;;;;2.55;1.30;;;19.60;99.90;;;;;;5016176;28;20658;-88
2022/07/10 01:25:51;;;;;;;2.17;1.08;;;19.60;99.90;;;;;;5027657;28;20198;-88
2022/07/10 01:28:18;;;;;;;1.20;0.80;;;19.50;99.90;;;;;;5026010;28;20200;-89
2022/07/10 01:30:45;;;;;;;2.65;0.98;;;19.50;99.90;;;;;;5019485;28;20199;-89
2022/07/10 01:33:11;;;;;;;1.42;0.80;;;19.50;99.90;;;;;;5026892;28;20204;-89
2022/07/10 01:35:38;;;;;;;2.22;0.90;;;19.50;99.90;;;;;;5019936;28;20215;-89
2022/07/10 01:38:07;;;;;;;1.92;0.95;;;19.50;99.90;;;;;;5027684;28;20194;-88
2022/07/10 01:40:34;;;;;;;1.50;0.80;;;19.50;99.90;;;;;;5022863;28;20205;-88
2022/07/10 01:43:01;;;;;;;3.22;1.45;;;19.50;99.90;;;;;;5021561;28;20206;-89
2022/07/10 01:45:28;;;;;;;2.58;0.90;;;19.50;99.90;;;;;;5027859;28;20232;-90
2022/07/10 01:47:54;;;;;;;1.95;1.17;;;19.50;99.90;;;;;;5015501;28;20587;-88
2022/07/10 01:50:21;;;;;;;1.30;0.80;;;19.50;99.90;;;;;;5023025;28;20293;-89
2022/07/10 01:52:48;;;;;;;1.65;1.00;;;19.40;99.90;;;;;;5017900;28;20214;-88
2022/07/10 01:55:16;;;;;;;2.95;1.35;;;19.40;99.90;;;;;;5026127;28;20202;-90
2022/07/10 01:57:43;;;;;;;1.20;0.80;;;19.40;99.90;;;;;;5020241;28;20197;-88
2022/07/10 02:00:11;;;;;;;2.15;1.08;;;19.40;99.90;;;;;;5020190;28;20205;-89
2022/07/10 02:02:37;;;;;;;3.42;0.85;;;19.40;99.90;;;;;;5019914;28;20244;-89
2022/07/10 02:05:04;;;;;;;1.30;1.17;;;19.40;99.90;;;;;;5032155;28;20218;-88
2022/07/10 02:07:30;;;;;;;2.97;1.70;;;19.40;99.90;;;;;;5023393;28;20188;-88
2022/07/10 02:09:57;;;;;;;2.38;0.98;;;19.40;99.90;;;;;;5024300;28;20591;-88
2022/07/10 02:12:25;;;;;;;1.80;0.95;;;19.40;99.90;;;;;;5019078;28;20197;-89
2022/07/10 02:14:52;;;;;;;1.85;1.10;;;19.40;99.90;;;;;;5028679;28;20637;-88
2022/07/10 02:17:19;;;;;;;1.98;0.90;;;19.30;99.90;;;;;;5020355;28;20614;-88
2022/07/10 02:19:45;;;;;;;1.63;1.00;;;19.30;99.90;;;;;;5028406;28;20200;-88
2022/07/10 02:22:12;;;;;;;1.50;0.93;;;19.30;99.90;;;;;;5026342;28;20202;-87
2022/07/10 02:24:39;;;;;;;0.90;0.70;;;19.30;99.90;;;;;;5022224;28;20231;-88
2022/07/10 02:27:06;;;;;;;1.33;0.88;;;19.30;99.90;;;;;;5026089;28;20575;-89
2022/07/10 02:29:34;;;;;;;2.67;1.00;;;19.30;99.90;;;;;;5026134;28;20275;-89
2022/07/10 02:32:02;;;;;;;2.65;0.90;;;19.30;99.90;;;;;;5024209;28;20293;-92
2022/07/10 02:34:29;;;;;;;2.90;1.10;;;19.30;99.90;;;;;;5027512;28;20209;-92
2022/07/10 02:36:56;;;;;;;1.90;1.10;;;19.20;99.90;;;;;;5025895;28;20209;-94
2022/07/10 02:39:23;;;;;;;1.40;0.93;;;19.20;99.90;;;;;;5028447;28;20190;-91
2022/07/10 02:41:50;;;;;;;1.80;0.90;;;19.20;99.90;;;;;;5025931;28;20199;-90
2022/07/10 02:44:16;;;;;;;2.90;1.05;;;19.20;99.90;;;;;;5028007;28;20287;-91
2022/07/10 02:46:44;;;;;;;2.63;0.93;;;19.20;99.90;;;;;;5028576;28;20654;-92
2022/07/10 02:49:11;;;;;;;13.32;12.60;;;19.20;99.90;;;;;;5024229;28;20578;-92
2022/07/10 02:51:38;;;;;;;1.50;0.85;;;19.20;99.90;;;;;;5024671;28;20197;-90
2022/07/10 02:54:05;;;;;;;3.35;1.38;;;19.10;99.90;;;;;;5026558;28;20192;-90
2022/07/10 02:56:31;;;;;;;1.73;1.00;;;19.20;99.90;;;;;;5030513;28;20198;-93
2022/07/10 02:58:58;;;;;;;4.65;1.10;;;19.20;99.90;;;;;;5022782;28;20293;-93
2022/07/10 03:01:25;;;;;;;2.33;1.05;;;19.20;99.90;;;;;;5018221;28;20215;-92
2022/07/10 03:03:53;;;;;;;1.45;1.00;;;19.10;99.90;;;;;;5025172;28;20205;-93
2022/07/10 03:06:20;;;;;;;2.00;1.00;;;19.20;99.90;;;;;;5024782;28;20716;-92
2022/07/10 03:08:47;;;;;;;1.38;0.80;;;19.10;99.90;;;;;;5027318;28;20251;-93
2022/07/10 03:11:13;;;;;;;1.65;0.90;;;19.10;99.90;;;;;;5022179;28;20211;-92
2022/07/10 03:13:40;;;;;;;4.95;0.98;;;19.10;99.90;;;;;;5029676;28;20203;-93
2022/07/10 03:16:07;;;;;;;1.00;0.70;;;19.10;99.90;;;;;;5021531;28;20216;-92
2022/07/10 03:18:34;;;;;;;2.78;1.00;;;19.10;99.90;;;;;;5031764;28;20265;-91
2022/07/10 03:21:03;;;;;;;1.70;0.88;;;19.10;99.90;;;;;;5027109;28;20200;-93
2022/07/10 03:23:29;;;;;;;1.45;0.95;;;19.10;99.90;;;;;;5022239;28;20768;-95
2022/07/10 03:25:56;;;;;;;4.38;1.40;;;19.00;99.90;;;;;;5028070;28;20222;-93
2022/07/10 03:28:23;;;;;;;1.45;0.85;;;19.10;99.90;;;;;;5025159;28;20202;-93
2022/07/10 03:30:50;;;;;;;1.90;0.80;;;19.10;99.90;;;;;;5029973;28;20203;-95
2022/07/10 03:33:17;;;;;;;1.70;0.90;;;19.00;99.90;;;;;;5026769;28;20191;-91
2022/07/10 03:35:44;;;;;;;2.03;1.00;;;19.00;99.90;;;;;;5019723;28;20655;-95
2022/07/10 03:38:12;;;;;;;1.00;0.80;;;19.00;99.90;;;;;;5025185;28;20255;-94
2022/07/10 03:40:39;;;;;;;1.90;1.00;;;19.00;99.90;;;;;;5027435;28;20281;-93
2022/07/10 03:43:05;;;;;;;1.10;1.00;;;19.00;99.90;;;;;;5027437;28;20243;-92
2022/07/10 03:45:32;;;;;;;0.90;0.70;;;19.00;99.90;;;;;;5022852;28;20229;-91
2022/07/10 03:47:59;;;;;;;1.25;0.90;;;19.00;99.90;;;;;;5020436;28;20207;-90
2022/07/10 03:50:25;;;;;;;2.15;0.95;;;19.00;99.90;;;;;;5026952;28;20203;-91
2022/07/10 03:52:52;;;;;;;2.55;0.90;;;18.90;99.90;;;;;;5023252;28;20192;-91
2022/07/10 03:55:20;;;;;;;1.90;0.90;;;18.90;99.90;;;;;;5018346;28;20212;-92
2022/07/10 03:57:56;;;;;;;2.05;1.05;;;18.90;99.90;;;;;;5022362;28;20204;-92
2022/07/10 04:00:24;;;;;;;1.38;0.90;;;18.90;99.90;;;;;;5020680;28;20936;-91
2022/07/10 04:02:56;;;;;;;1.42;0.90;;;18.90;99.90;;;;;;5017403;28;20223;-91
2022/07/10 04:05:23;;;;;;;6.28;1.35;;;18.90;99.90;;;;;;5015152;28;20251;-93
2022/07/10 04:07:49;;;;;;;3.97;1.00;;;18.90;99.90;;;;;;5022900;28;20924;-90
2022/07/10 04:10:16;;;;;;;2.10;1.30;;;18.90;99.90;;;;;;5017482;28;20667;-90
2022/07/10 04:12:45;;;;;;;2.97;1.10;;;18.90;99.90;;;;;;5023713;28;20226;-90
2022/07/10 04:15:12;;;;;;;1.98;1.10;;;18.90;99.90;;;;;;5020961;28;20208;-92
2022/07/10 04:17:38;;;;;;;1.10;0.80;;;18.90;99.90;;;;;;5026825;28;20209;-92
2022/07/10 04:20:07;;;;;;;2.55;0.90;;;18.90;99.90;;;;;;5022744;28;21545;-91
2022/07/10 04:22:33;;;;;;;3.40;1.25;;;18.80;99.90;;;;;;5025739;28;20648;-90
2022/07/10 04:25:00;;;;;;;3.38;1.63;;;18.90;99.90;;;;;;5022393;28;20227;-92
2022/07/10 04:27:27;;;;;;;1.70;1.05;;;18.90;99.90;;;;;;5027907;28;20200;-91
2022/07/10 04:29:55;;;;;;;1.05;0.80;;;18.90;99.90;;;;;;5023347;28;20204;-90
2022/07/10 04:32:22;;;;;;;1.95;0.90;;;18.80;99.90;;;;;;5025005;28;20206;-92
2022/07/10 04:34:50;;;;;;;1.90;1.58;;;18.80;99.90;;;;;;5024843;28;20204;-96
2022/07/10 04:37:17;;;;;;;3.80;1.00;;;18.80;99.90;;;;;;5025698;28;20283;-93
2022/07/10 04:39:44;;;;;;;1.35;0.90;;;18.80;99.90;;;;;;5025928;28;20204;-94
2022/07/10 04:42:11;;;;;;;1.10;0.90;;;18.80;99.90;;;;;;5021688;28;20206;-92
2022/07/10 04:44:38;;;;;;;1.60;0.90;;;18.80;99.90;;;;;;5023905;28;20571;-92
2022/07/10 04:47:06;;;;;;;2.00;1.05;;;18.80;99.90;;;;;;5031106;28;20200;-91
2022/07/10 04:49:34;;;;;;;1.73;1.00;;;18.80;99.90;;;;;;5022438;28;20199;-92
2022/07/10 04:52:01;;;;;;;2.95;1.00;;;18.80;99.90;;;;;;5022551;28;20222;-93
2022/07/10 04:54:28;;;;;;;1.98;0.90;;;18.80;99.90;;;;;;5021848;28;20575;-91
2022/07/10 04:56:55;;;;;;;2.75;1.20;;;18.80;99.90;;;;;;5023200;28;20189;-93
2022/07/10 04:59:22;;;;;;;1.67;1.55;;;18.80;99.90;;;;;;5025700;28;20644;-92
2022/07/10 05:01:49;;;;;;;1.40;1.00;;;18.80;99.90;;;;;;5022182;28;20220;-88
2022/07/10 05:04:17;;;;;;;1.75;1.10;;;18.80;99.90;;;;;;5017444;28;20196;-89
2022/07/10 05:06:44;;;;;;;3.00;1.30;;;18.70;99.90;;;;;;5034798;28;20216;-93
2022/07/10 05:09:10;;;;;;;1.50;1.10;;;18.80;99.90;;;;;;5024405;28;20204;-91
2022/07/10 05:11:37;;;;;;;3.05;1.05;;;18.70;99.90;;;;;;5020350;28;20202;-93
2022/07/10 05:14:04;;;;;;;2.45;1.25;;;18.80;99.90;;;;;;5025101;28;20193;-91
2022/07/10 05:16:31;;;;;;;1.35;0.85;;;18.80;99.90;;;;;;5035635;28;20211;-90
2022/07/10 05:18:57;;;;;;;2.70;1.48;;;18.80;99.90;;;;;;5035156;28;20199;-92
2022/07/10 05:21:26;;;;;;;1.20;0.80;;;18.80;99.90;;;;;;5030717;28;20207;-93
2022/07/10 05:23:56;;;;;;;2.13;1.20;;;18.80;99.90;;;;;;5032874;28;20192;-94
2022/07/10 05:26:22;;;;;;;3.53;0.93;;;18.70;99.90;;;;;;5029015;28;20323;-93
2022/07/10 05:28:49;;;;;;;1.60;0.80;;;18.70;99.90;;;;;;5039098;28;20567;-92
2022/07/10 05:31:16;;;;;;;1.65;1.00;;;18.80;99.90;;;;;;5035733;28;20200;-91
2022/07/10 05:33:43;;;;;;;3.03;1.25;;;18.80;99.90;;;;;;5031910;28;20228;-91
2022/07/10 05:36:10;;;;;;;1.75;1.17;;;18.80;99.90;;;;;;5031893;28;20199;-89
2022/07/10 05:38:38;;;;;;;3.75;1.55;;;18.90;99.90;;;;;;5031967;28;20227;-89
2022/07/10 05:41:05;;;;;;;2.53;1.60;;;18.90;99.90;;;;;;5026966;28;20198;-87
2022/07/10 05:43:32;;;;;;;2.00;1.20;;;19.00;99.90;;;;;;5027897;28;20189;-89
2022/07/10 05:45:59;;;;;;;3.25;0.95;;;19.00;99.90;;;;;;5025219;28;20229;-88
2022/07/10 05:48:26;;;;;;;4.20;1.35;;;19.10;99.90;;;;;;5014943;28;20201;-88
2022/07/10 05:50:53;;;;;;;2.55;1.20;;;19.10;99.90;;;;;;5018251;28;20626;-90
2022/07/10 05:53:20;;;;;;;4.30;1.10;;;19.20;99.90;;;;;;5024879;28;20198;-91
2022/07/10 05:55:48;;;;;;;3.05;0.93;;;19.10;99.90;;;;;;5036560;28;20212;-90
2022/07/10 05:58:15;;;;;;;2.63;1.65;;;19.20;99.90;;;;;;5029389;28;20250;-90
2022/07/10 06:00:43;;;;;;;1.42;1.15;;;19.20;99.90;;;;;;5030810;28;20206;-90
2022/07/10 06:03:10;;;;;;;11.20;10.63;;;19.10;99.90;;;;;;5027795;28;20226;-90
2022/07/10 06:05:37;;;;;;;5.13;1.15;;;19.20;99.90;;;;;;5034340;28;20217;-92
2022/07/10 06:08:05;;;;;;;4.75;1.13;;;19.20;99.90;;;;;;5037233;28;20219;-91
2022/07/10 06:10:32;;;;;;;2.75;1.52;;;19.20;99.90;;;;;;5028124;28;20197;-92
2022/07/10 06:13:00;;;;;;;4.60;1.75;;;19.20;99.90;;;;;;5037824;28;20306;-89
2022/07/10 06:15:27;;;;;;;2.08;1.00;;;19.20;99.90;;;;;;5031239;28;20196;-91
2022/07/10 06:17:57;;;;;;;89.05;85.43;;;19.20;99.90;;;;;;5031039;28;20201;-87
2022/07/10 06:20:24;;;;;;;4.35;4.15;;;19.30;99.90;;;;;;5034608;28;20216;-90
2022/07/10 06:22:51;;;;;;;1.85;1.75;;;19.30;99.90;;;;;;5027253;28;20204;-90
2022/07/10 06:25:18;;;;;;;2.00;1.20;;;19.40;99.90;;;;;;5030984;28;20202;-89
2022/07/10 06:27:45;;;;;;;2.90;1.10;;;19.60;99.90;;;;;;5034868;28;20208;-90
2022/07/10 06:30:13;;;;;;;1.23;0.82;;;19.70;99.90;;;;;;5023028;28;20233;-89
2022/07/10 06:32:40;;;;;;;1.63;1.13;;;19.80;99.90;;;;;;5026912;28;20462;-89
2022/07/10 06:35:08;;;;;;;2.15;1.10;;;20.00;99.90;;;;;;5032854;28;20572;-89
2022/07/10 06:37:35;;;;;;;171.00;164.38;;;20.20;99.90;;;;;;5022792;28;20214;-91
2022/07/10 06:40:02;;;;;;;1.63;1.23;;;20.40;99.90;;;;;;5030766;28;20199;-89
2022/07/10 06:42:29;;;;;;;5.43;1.00;;;20.50;99.90;;;;;;5031210;28;20229;-90
2022/07/10 06:44:56;;;;;;;2.95;1.70;;;20.50;99.90;;;;;;5026432;28;20202;-89
2022/07/10 06:50:09;;;;;;;2.17;1.13;;;20.50;99.90;;;;;;5027678;28;20222;-90
2022/07/10 06:52:37;;;;;;;1.83;1.25;;;20.50;99.90;;;;;;5035261;28;20195;-89
2022/07/10 06:55:04;;;;;;;2.95;1.20;;;20.30;99.90;;;;;;5022760;28;20643;-89
2022/07/10 06:57:31;;;;;;;1.80;0.80;;;20.20;99.90;;;;;;5021951;28;20211;-89
2022/07/10 06:59:58;;;;;;;2.40;1.02;;;20.00;99.90;;;;;;5020875;28;20194;-91
2022/07/10 07:02:27;;;;;;;2.15;1.10;;;19.90;99.90;;;;;;5026063;28;20222;-86
2022/07/10 07:04:53;;;;;;;1.33;0.90;;;19.80;99.90;;;;;;5016331;28;20196;-86
2022/07/10 07:07:20;;;;;;;1.20;0.98;;;19.80;99.90;;;;;;5019225;28;20222;-87
2022/07/10 07:09:49;;;;;;;3.38;0.90;;;19.70;99.90;;;;;;5018712;28;20650;-87
2022/07/10 07:12:17;;;;;;;2.67;1.08;;;19.60;99.90;;;;;;5029947;28;20207;-90
2022/07/10 07:14:43;;;;;;;9.20;1.17;;;19.60;99.90;;;;;;5032639;28;20252;-89
2022/07/10 07:17:12;;;;;;;4.03;1.02;;;19.60;99.90;;;;;;5030581;28;20199;-89
2022/07/10 07:25:11;;;;;;;10.00;7.93;;;19.40;99.90;;;;;;5032882;28;20213;-88
2022/07/10 07:27:39;;;;;;;1.25;1.00;;;19.40;99.90;;;;;;5034730;28;20223;-90
2022/07/10 07:30:08;;;;;;;1.45;1.00;;;19.30;99.90;;;;;;5037987;28;20212;-91
2022/07/10 07:32:35;;;;;;;2.20;1.30;;;19.30;99.90;;;;;;5037626;28;20736;-91
2022/07/10 07:35:04;;;;;;;2.28;1.20;;;19.30;99.90;;;;;;5033197;28;20286;-88
2022/07/10 07:37:38;;;;;;;5.50;2.00;;;19.30;99.90;;;;;;5029955;28;20194;-88
2022/07/10 07:40:07;;;;;;;4.85;1.67;;;19.30;99.90;;;;;;5034270;28;20397;-88
2022/07/10 07:42:34;;;;;;;3.47;1.20;;;19.20;99.90;;;;;;5031556;28;20540;-88
2022/07/10 07:45:01;;;;;;;5.18;1.23;;;19.20;99.90;;;;;;5033110;28;20188;-88
2022/07/10 07:47:28;;;;;;;1.92;1.10;;;19.20;99.90;;;;;;5026862;28;20220;-88
2022/07/10 07:49:55;;;;;;;1.92;0.80;;;19.20;99.90;;;;;;5022815;28;20193;-89
2022/07/10 07:52:23;;;;;;;3.65;1.25;;;19.20;99.90;;;;;;5034253;28;20198;-90
2022/07/10 07:54:51;;;;;;;2.40;1.00;;;19.20;99.90;;;;;;5036728;28;20207;-93
2022/07/10 07:57:18;;;;;;;2.28;1.63;;;19.20;99.90;;;;;;5029390;28;20199;-88
2022/07/10 07:59:47;;;;;;;3.88;1.13;;;19.20;99.90;;;;;;5030466;28;20224;-89
2022/07/10 08:02:13;;;;;;;2.58;1.02;;;19.20;99.90;;;;;;5026032;28;20245;-92
2022/07/10 08:04:40;;;;;;;3.28;1.40;;;19.20;99.90;;;;;;5030134;28;20952;-88
2022/07/10 08:07:07;;;;;;;1.67;0.98;;;19.20;99.90;;;;;;5027083;28;20749;-85
2022/07/10 08:09:35;;;;;;;3.33;1.52;;;19.20;99.90;;;;;;5017957;28;20202;-85
2022/07/10 08:12:02;;;;;;;2.55;1.10;;;19.20;99.90;;;;;;5022292;28;20295;-85
2022/07/10 08:14:29;;;;;;;5.03;3.47;;;19.10;99.90;;;;;;5017619;28;20692;-85
2022/07/10 08:16:55;;;;;;;12.27;11.82;;;19.20;99.90;;;;;;5021872;28;20225;-85
2022/07/10 08:19:22;;;;;;;37.72;36.08;;;19.20;99.90;;;;;;5030722;28;20205;-85
2022/07/10 08:21:49;;;;;;;9.32;8.93;;;19.20;99.90;;;;;;5019800;28;20205;-85
2022/07/10 08:24:16;;;;;;;1.33;1.20;;;19.10;99.90;;;;;;5023663;28;20202;-84
2022/07/10 08:26:44;;;;;;;4.63;1.45;;;19.10;99.90;;;;;;5031581;28;20254;-84
2022/07/10 08:29:10;;;;;;;1.65;0.95;;;19.10;99.90;;;;;;5025822;28;20272;-85
2022/07/10 08:31:39;;;;;;;3.47;1.13;;;19.10;99.90;;;;;;5019606;28;20567;-85
2022/07/10 08:34:06;;;;;;;85.13;82.38;;;19.10;99.90;;;;;;5020216;28;20656;-85
2022/07/10 08:36:33;;;;;;;69.40;66.63;;;19.20;99.90;;;;;;5023443;28;20199;-84
2022/07/10 08:38:59;;;;;;;2.30;1.08;;;19.10;99.90;;;;;;5019308;28;20192;-84
2022/07/10 08:41:27;;;;;;;4.60;1.08;;;19.10;99.90;;;;;;5029596;28;20225;-87
2022/07/10 08:43:55;;;;;;;3.10;1.00;;;19.10;99.90;;;;;;5023808;28;20211;-85
2022/07/10 08:46:22;;;;;;;7.35;6.88;;;19.20;99.90;;;;;;5018834;28;20224;-85
2022/07/10 08:48:52;;;;;;;1.42;0.80;;;19.20;99.90;;;;;;5018025;28;20207;-84
2022/07/10 08:51:26;;;;;;;2.03;1.02;;;19.20;99.90;;;;;;5029404;28;20189;-84
2022/07/10 08:53:54;;;;;;;2.17;1.70;;;19.10;99.90;;;;;;5023534;28;20299;-85
2022/07/10 08:56:21;;;;;;;1.77;1.00;;;19.10;99.90;;;;;;5024890;28;20622;-84
2022/07/10 08:58:50;;;;;;;44.83;42.90;;;19.10;99.90;;;;;;5026809;28;20202;-85
2022/07/10 09:01:22;;;;;;;202.32;195.13;;;19.10;99.90;;;;;;5020452;28;20201;-85
2022/07/10 09:03:49;;;;;;;9.98;9.38;;;19.10;99.90;;;;;;5028215;28;20204;-84
2022/07/10 09:06:16;;;;;;;2.28;1.10;;;19.10;99.90;;;;;;5028848;28;20213;-85
2022/07/10 09:08:59;;;;;;;3.92;1.40;;;19.10;99.90;;;;;;5023105;28;20198;-84
2022/07/10 09:11:28;;;;;;;1.10;0.80;;;19.10;99.90;;;;;;5022035;28;20203;-85
2022/07/10 09:13:56;;;;;;;2.10;1.50;;;19.10;99.90;;;;;;5019611;28;20199;-84
2022/07/10 09:16:26;;;;;;;2.17;1.10;;;19.10;99.90;;;;;;5021980;28;20208;-85
2022/07/10 09:18:53;;;;;;;1.50;0.90;;;19.10;99.90;;;;;;5028523;28;20202;-84
2022/07/10 09:21:21;;;;;;;2.72;1.10;;;19.10;99.90;;;;;;5017709;28;20243;-85
2022/07/10 09:23:48;;;;;;;1.63;1.00;;;19.10;99.90;;;;;;5031721;28;20202;-85
2022/07/10 09:26:15;;;;;;;1.02;0.80;;;19.10;99.90;;;;;;5027012;28;20219;-84
2022/07/10 09:28:42;;;;;;;3.22;1.10;;;19.10;99.90;;;;;;5021698;28;20213;-85
2022/07/10 09:31:08;;;;;;;5.60;1.17;;;19.10;99.90;;;;;;5020232;28;20204;-85
2022/07/10 09:33:37;;;;;;;3.47;1.00;;;19.10;99.90;;;;;;5020205;28;20287;-85
2022/07/10 09:36:07;;;;;;;1.20;0.80;;;19.10;99.90;;;;;;5027652;28;20213;-84
2022/07/10 09:38:55;;;;;;;2.97;1.13;;;19.10;99.90;;;;;;5022401;28;20198;-84
2022/07/10 09:41:26;;;;;;;1.95;0.85;;;19.20;99.90;;;;;;5021504;28;20292;-88
2022/07/10 09:43:55;;;;;;;4.72;1.10;;;19.30;99.90;;;;;;5023687;28;20203;-86
2022/07/10 09:46:24;;;;;;;1.80;0.90;;;19.30;99.90;;;;;;5021500;28;20213;-86
2022/07/10 09:49:04;;;;;;;1.55;1.00;;;19.30;99.90;;;;;;5019921;28;20204;-87
2022/07/10 09:51:33;;;;;;;1.45;1.30;;;19.30;99.90;;;;;;5021120;28;20198;-86
2022/07/10 09:54:02;;;;;;;3.50;1.42;;;19.30;99.90;;;;;;5023741;28;20288;-86
2022/07/10 09:56:34;;;;;;;3.10;1.65;;;19.30;99.90;;;;;;5033890;28;20200;-87
2022/07/10 09:59:05;;;;;;;1.10;0.80;;;19.30;99.90;;;;;;5033442;28;20232;-87
2022/07/10 10:01:32;;;;;;;1.60;1.00;;;19.30;99.90;;;;;;5027431;28;20232;-88
2022/07/10 10:04:01;;;;;;;1.92;1.13;;;19.30;99.90;;;;;;5028123;28;20215;-86
2022/07/10 10:06:31;;;;;;;5.75;1.00;;;19.30;99.90;;;;;;5034117;28;20224;-87
2022/07/10 10:09:05;;;;;;;2.25;1.02;;;19.30;99.90;;;;;;5033090;28;20229;-88
2022/07/10 10:11:35;;;;;;;1.30;0.90;;;19.30;99.90;;;;;;5021510;28;20246;-86
2022/07/10 10:14:02;;;;;;;2.63;1.00;;;19.30;99.90;;;;;;5024125;28;20315;-86
2022/07/10 10:16:29;;;;;;;2.03;1.00;;;19.30;99.90;;;;;;5025220;28;20741;-87
2022/07/10 10:21:42;;;;;;;2.28;1.00;;;19.30;99.90;;;;;;5034362;28;20205;-86
2022/07/10 10:24:09;;;;;;;4.28;1.23;;;19.40;99.90;;;;;;5028249;28;20207;-85
2022/07/10 10:26:36;;;;;;;1.20;0.90;;;19.40;99.90;;;;;;5032412;28;20240;-86
2022/07/10 10:29:06;;;;;;;2.63;1.52;;;19.40;99.90;;;;;;5016429;28;20204;-86
2022/07/10 10:31:34;;;;;;;1.23;1.00;;;19.40;99.90;;;;;;5021649;28;20203;-86
2022/07/10 10:34:01;;;;;;;2.38;0.90;;;19.40;99.90;;;;;;5028015;28;20198;-86
2022/07/10 10:36:48;;;;;;;1.70;0.90;;;19.40;99.90;;;;;;5028616;28;20230;-86
2022/07/10 10:39:18;;;;;;;1.17;0.90;;;19.40;99.90;;;;;;5024557;28;20202;-86
2022/07/10 10:41:52;;;;;;;1.45;0.95;;;19.40;99.90;;;;;;5028939;28;20504;-87
2022/07/10 10:44:35;;;;;;;57.90;55.72;;;19.40;99.90;;;;;;5022423;28;20783;-87
2022/07/10 10:47:09;;;;;;;1.30;1.00;;;19.40;99.90;;;;;;5023157;28;20263;-87
2022/07/10 10:49:53;;;;;;;3.47;1.40;;;19.40;99.90;;;;;;5026645;28;20276;-87
2022/07/10 10:52:22;;;;;;;1.45;1.05;;;19.40;99.90;;;;;;5028199;28;20220;-87
2022/07/10 10:55:11;;;;;;;2.00;0.90;;;19.40;99.90;;;;;;5024259;28;20206;-86
2022/07/10 10:57:47;;;;;;;1.08;0.80;;;19.40;99.90;;;;;;5021083;28;20198;-87
2022/07/10 11:00:40;;;;;;;2.00;1.35;;;19.40;99.90;;;;;;5026583;28;20191;-86
2022/07/10 11:03:24;;;;;;;1.30;0.70;;;19.40;99.90;;;;;;5022418;28;20226;-85
2022/07/10 11:05:52;;;;;;;1.85;1.35;;;19.40;99.90;;;;;;5026829;28;20203;-86
2022/07/10 11:08:40;;;;;;;1.88;1.10;;;19.40;99.90;;;;;;5023992;28;20300;-85
2022/07/10 11:11:39;;;;;;;1.52;1.10;;;19.50;99.90;;;;;;5027626;28;20212;-85
2022/07/10 11:14:07;;;;;;;1.50;1.00;;;19.50;99.90;;;;;;5021735;28;20210;-85
2022/07/10 11:16:34;;;;;;;1.23;0.80;;;19.40;99.90;;;;;;5029075;28;20213;-85
2022/07/10 11:19:02;;;;;;;1.35;1.00;;;19.50;99.90;;;;;;5033839;28;20202;-84
2022/07/10 11:21:35;;;;;;;1.70;1.10;;;19.50;99.90;;;;;;5030689;28;20248;-84
2022/07/10 11:24:11;;;;;;;1.15;0.82;;;19.50;99.90;;;;;;5020837;28;20214;-84
2022/07/10 11:26:50;;;;;;;1.13;0.90;;;19.50;99.90;;;;;;5019262;28;20203;-85
2022/07/10 11:29:19;;;;;;;1.80;0.88;;;19.50;99.90;;;;;;5018134;28;20213;-85
2022/07/10 11:31:53;;;;;;;1.95;1.10;;;19.50;99.90;;;;;;5027241;28;20206;-85
2022/07/10 11:34:20;;;;;;;1.27;0.90;;;19.50;99.90;;;;;;5025166;28;20201;-86
2022/07/10 11:36:48;;;;;;;2.10;1.00;;;19.40;99.90;;;;;;5025667;28;20602;-85
2022/07/10 11:39:16;;;;;;;1.50;0.80;;;19.50;99.90;;;;;;5026936;28;20656;-84
2022/07/10 11:41:44;;;;;;;1.10;0.90;;;19.50;99.90;;;;;;5025719;28;20752;-85
2022/07/10 11:44:14;;;;;;;1.20;0.88;;;19.50;99.90;;;;;;5023225;28;20281;-86
2022/07/10 11:46:44;;;;;;;1.63;0.90;;;19.50;99.90;;;;;;5026183;28;20668;-86
2022/07/10 11:49:11;;;;;;;1.95;0.82;;;19.50;99.90;;;;;;5022008;28;20280;-86
2022/07/10 11:51:39;;;;;;;1.35;1.20;;;19.50;99.90;;;;;;5019957;28;20204;-85
2022/07/10 11:54:08;;;;;;;1.50;0.88;;;19.50;99.90;;;;;;5022206;28;20278;-84
2022/07/10 11:56:38;;;;;;;3.80;0.90;;;19.50;99.90;;;;;;5028562;28;20194;-86
2022/07/10 11:59:08;;;;;;;1.15;0.80;;;19.50;99.90;;;;;;5029517;28;20660;-86
2022/07/10 12:01:36;;;;;;;1.20;0.90;;;19.50;99.90;;;;;;5027930;28;20215;-86
2022/07/10 12:04:04;;;;;;;1.73;0.90;;;19.60;99.90;;;;;;5028895;28;20201;-85
2022/07/10 12:06:32;;;;;;;1.50;1.15;;;19.60;99.90;;;;;;5026381;28;20255;-84
2022/07/10 12:09:03;;;;;;;1.58;1.40;;;19.60;99.90;;;;;;5025476;28;20214;-85
2022/07/10 12:11:30;;;;;;;1.25;0.75;;;19.60;99.90;;;;;;5030708;28;20665;-86
2022/07/10 12:14:10;;;;;;;0.90;0.70;;;19.60;99.90;;;;;;5024406;28;20662;-84
2022/07/10 12:16:38;;;;;;;1.10;0.90;;;19.60;99.90;;;;;;5029176;28;20524;-84
2022/07/10 12:19:06;;;;;;;2.30;1.15;;;19.60;99.90;;;;;;5019304;28;20265;-86
2022/07/10 12:21:34;;;;;;;1.48;0.88;;;19.60;99.90;;;;;;5022973;28;20203;-85
2022/07/10 12:24:02;;;;;;;2.90;1.05;;;19.70;99.90;;;;;;5020279;28;20206;-85
2022/07/10 12:26:33;;;;;;;1.38;0.93;;;19.70;99.90;;;;;;5026511;28;20681;-85
2022/07/10 12:29:01;;;;;;;1.23;1.00;;;19.70;99.90;;;;;;5029212;28;20225;-85
2022/07/10 12:31:29;;;;;;;1.25;1.00;;;19.80;99.90;;;;;;5030582;28;20203;-85
2022/07/10 12:34:02;;;;;;;1.80;1.00;;;19.80;99.90;;;;;;5022221;28;20233;-85
2022/07/10 12:36:43;;;;;;;1.67;0.80;;;19.80;99.90;;;;;;5029309;28;20216;-84
2022/07/10 12:39:10;;;;;;;1.10;0.80;;;19.80;99.90;;;;;;5024787;28;20225;-84
2022/07/10 12:41:59;;;;;;;1.25;1.08;;;19.90;99.90;;;;;;5029863;28;20193;-85
2022/07/10 12:44:35;;;;;;;1.85;0.70;;;19.90;99.90;;;;;;5024757;28;20197;-83
2022/07/10 12:47:03;;;;;;;1.02;0.80;;;20.00;99.90;;;;;;5029235;28;20595;-89
2022/07/10 12:49:30;;;;;;;0.90;0.70;;;20.00;99.90;;;;;;5024544;28;20202;-84
2022/07/10 12:51:56;;;;;;;1.10;0.80;;;19.90;99.90;;;;;;5027992;28;20200;-85
2022/07/10 12:54:36;;;;;;;0.90;0.70;;;19.90;99.90;;;;;;5021533;28;20207;-84
2022/07/10 12:57:05;;;;;;;2.75;1.42;;;19.90;99.90;;;;;;5025762;28;20210;-84
2022/07/10 12:59:35;;;;;;;2.22;0.80;;;19.90;99.90;;;;;;5032083;28;20301;-84
2022/07/10 13:02:18;;;;;;;1.00;0.82;;;19.80;99.90;;;;;;5022719;28;20223;-85
2022/07/10 13:04:54;;;;;;;1.25;0.90;;;19.80;99.90;;;;;;5022323;28;20204;-85